This is the latest recevied weather packets stored in our database for station/object EB5AGF-13. If no packets are shown the sender has not sent any weather packets the latest 10 day(s).
| Time | Temp. | Humidity | Pressure | Rain* | Wind** | Luminosity | Snow |
|---|---|---|---|---|---|---|---|
| 1777993111 | 21.67° C | 67% | 1007.3 hPa | 0 mm | 4.47 m/s, 210° | 407 W/m² | - |
| 1777992811 | 21.67° C | 69% | 1007.4 hPa | 0 mm | 3.58 m/s, 203° | 422 W/m² | - |
| 1777992511 | 21.67° C | 68% | 1007.1 hPa | 0 mm | 2.68 m/s, 185° | 418 W/m² | - |
| 1777992211 | 22.22° C | 67% | 1007.2 hPa | 0 mm | 2.68 m/s, 180° | 124 W/m² | - |
| 1777991912 | 21.11° C | 70% | 1007.1 hPa | 0 mm | 2.24 m/s, 236° | 59 W/m² | - |
| 1777991608 | 21.11° C | 71% | 1007.4 hPa | 0 mm | 3.13 m/s, 186° | 57 W/m² | - |
| 1777991304 | 21.67° C | 69% | 1007.2 hPa | 0 mm | 2.24 m/s, 310° | 58 W/m² | - |
| 1777991000 | 22.22° C | 67% | 1007.5 hPa | 0 mm | 3.58 m/s, 197° | 57 W/m² | - |
| 1777990696 | 21.67° C | 69% | 1007.3 hPa | 0 mm | 1.79 m/s, 190° | 59 W/m² | - |
| 1777990392 | 22.22° C | 68% | 1007.4 hPa | 0 mm | 2.24 m/s, 285° | 61 W/m² | - |
| 1777989784 | 22.22° C | 68% | 1007.7 hPa | 0 mm | 1.79 m/s, 159° | 529 W/m² | - |
| 1777989480 | 22.22° C | 68% | 1007.9 hPa | 0 mm | 2.24 m/s, 354° | 552 W/m² | - |
| 1777989176 | 21.67° C | 68% | 1007.7 hPa | 0 mm | 2.68 m/s, 215° | 550 W/m² | - |
| 1777988855 | 21.67° C | 66% | 1007.8 hPa | 0 mm | 2.24 m/s, 186° | 568 W/m² | - |
| 1777988552 | 21.67° C | 66% | 1007.8 hPa | 0 mm | 3.58 m/s, 186° | 583 W/m² | - |
| 1777988251 | 22.78° C | 61% | 1007.9 hPa | 0 mm | 0.89 m/s, 181° | 593 W/m² | - |
| 1777987952 | 22.22° C | 63% | 1008 hPa | 0 mm | 1.79 m/s, 211° | 612 W/m² | - |
| 1777987652 | 22.22° C | 61% | 1008.2 hPa | 0 mm | 2.68 m/s, 186° | 622 W/m² | - |
| 1777987352 | 22.22° C | 63% | 1008.2 hPa | 0 mm | 4.47 m/s, 175° | 635 W/m² | - |
| 1777987047 | 21.67° C | 62% | 1008.3 hPa | 0 mm | 1.79 m/s, 186° | 635 W/m² | - |
| 1777986744 | 22.22° C | 65% | 1008.4 hPa | 0 mm | 2.68 m/s, 204° | 586 W/m² | - |
| 1777986440 | 23.33° C | 57% | 1008.6 hPa | 0 mm | 1.79 m/s, 234° | 616 W/m² | - |
| 1777986135 | 22.78° C | 55% | 1008.6 hPa | 0 mm | 0.89 m/s, 198° | 608 W/m² | - |
| 1777985831 | 22.22° C | 59% | 1008.4 hPa | 0 mm | 1.79 m/s, 210° | 660 W/m² | - |
| 1777985528 | 22.22° C | 59% | 1008.6 hPa | 0 mm | 4.02 m/s, 167° | 660 W/m² | - |
* Rain latest hour (hover to see other rain measurements)
** Current wind speed in m/s (hover to see current wind gust speed)